Accueil
METAR-TAF:

METAR-TAF

Aéroports :

Siegen, Allemagne

latitude: 50-42-28N, longitude: 008-04-59E, altitude: 602 m

Observation

Le bulletin a été fait il y a 1 heure et 53 minutes, à 16:50 UTC
Vent 8 kt de nord/nord-ouest
Température 24°C
Humidité 57%
Pression 1020 hPa
Visibilité 10 km ou plus
Nuages épars à une hauteur de 4200 ft

METAR: EDGS 151650Z 33008KT 9999 SCT042 24/15 Q1020

Heure: 20:43 (18:43 UTC)

Prévision

Le bulletin a été fait il y a 1 heure et 43 minutes, à 17:00 UTC
Prévision valable du 15 à 18 UTC au 16 à 03 UTC
Vent 7 kt de nord/nord-ouest
Visibilité 10 km ou plus
Quelques nuages à une hauteur de 4500 ft
Evoluant progressivement
du 15 à 18 UTC au 15 à 20 UTC
Vent 5 kt de nord/nord-est

TAF: EDGS 151700Z 1518/1603 33007KT 9999 FEW045 BECMG 1518/1520 03005KT

Observations et prévisions météorologiques de plus de 4000 aéroports (messages METAR et TAF).

Les stations disponibles sont représentées par des disques jaunes et rouges sur la carte.

Passer la souris dessus pour voir le nom de la station.

Cliquer dessus pour voir les observations et prévisions météorologiques.

Pour changer de carte: cliquez sur les boutons verts avec une croix noire pour zoomer, sur le bouton vert avec un tiret pour effectuer un zoom arrière, ou sur les flèches vertes pour les cartes adjacentes.


METAR-TAF: